Springlake, TX (79082)

08:37 AM CDT am 24. August 2016 (GMT -0500)
WT_Meso | | Change Station

Höhe 3646 ft 34.02 °N, 102.40 °W | Updated 32 minutes ago

Clear
Heiter
65 °F
gefühlte 65 °F
N
14
Wind Wechselnd Wind aus Süd
Gusts 19.0 mph

Heute
Max. -- | schwach -- °F
--% Regenrisiko
Gestern
Max. -- | schwach -- °F
Precip. -- inch
Druck 30.12 inch
Sichtweite 10.0 Meilen
Wolken Heiter
Taupunkt 60 °F
Feuchtigkeit 91%
Regen inch
Schneehöhe Nicht verfügbar..
7:17 AM 8:24 PM
Drittes Viertel, 57% visible
METAR KPVW 241315Z AUTO 21005KT 10SM CLR 18/16 A3012 RMK AO2 T01800160
Druck 30.12 inch
Sichtweite 10.0 Meilen
Wolken Heiter
Taupunkt 60 °F
Feuchtigkeit 91%
Regen inch
Schneehöhe Nicht verfügbar..
7:17 AM 8:24 PM
Drittes Viertel, 57% visible
METAR KPVW 241315Z AUTO 21005KT 10SM CLR 18/16 A3012 RMK AO2 T01800160

10-Day Weather Forecast

Almanac

Astronomie

Aug. 24, 2016 Aufgang Untergang
Genaue Zeit
Bürgerliche Dämmerung
Nautische Dämmerung
Astronomische Dämmerung
Mond
Länge des sichtbaren Lichts
Tageslänge
Tomorrow will be .
, % of the Moon is Illuminated

Heutige Rekorde

State Highs State Lows

Community

WunderPhotos

Upload Photos

1,934,599 Fotos hochgeladen!

WunderBlog® & News

Nearby

Luftqualität

  Luftqualität LQ Index Schadstoff
Not available.

Schneehöhe

Station Depth Höhe

Erdbebenaktivität

Stadt Distance Mag. Time & Date
Minimum magnitude displayed is 2.5.

küstennahe Wassertemperaturen

Ort Temperatur

Stations

Wetterstationen in der Umgebung

Stationsstandort Temp. Windchill Taupunkt Feuchtigkeit Wind Precip. Höhe Aktualisiert Art
                   

Watches & Warnings

There are currently no watches in effect.